createdAt,value
2022-10-18T00:01:32.920Z,68.80
2022-10-18T00:04:06.879Z,68.71
2022-10-18T00:06:43.362Z,68.80
2022-10-18T00:09:20.687Z,69.27
2022-10-18T00:11:56.374Z,68.83
2022-10-18T00:14:37.372Z,68.54
2022-10-18T00:17:10.622Z,68.63
2022-10-18T00:19:54.308Z,68.62
2022-10-18T00:22:27.990Z,68.70
2022-10-18T00:25:01.134Z,68.71
2022-10-18T00:27:42.987Z,68.72
2022-10-18T00:30:18.117Z,68.62
2022-10-18T00:32:53.439Z,68.57
2022-10-18T00:35:27.549Z,68.52
2022-10-18T00:38:00.994Z,68.48
2022-10-18T00:40:35.225Z,68.59
2022-10-18T00:43:08.650Z,68.52
2022-10-18T00:45:41.631Z,68.48
2022-10-18T00:48:23.269Z,68.59
2022-10-18T00:50:57.549Z,68.44
2022-10-18T00:53:43.337Z,68.46
2022-10-18T00:56:16.315Z,68.63
2022-10-18T00:58:50.486Z,68.56
2022-10-18T01:01:25.949Z,68.47
2022-10-18T01:04:03.795Z,68.43
2022-10-18T01:06:51.069Z,68.60
2022-10-18T01:09:32.620Z,68.70
2022-10-18T01:12:17.291Z,69.19
2022-10-18T01:15:20.854Z,68.93
2022-10-18T01:18:09.509Z,68.82
2022-10-18T01:21:08.470Z,68.83
2022-10-18T01:23:43.919Z,69.07
2022-10-18T01:26:47.811Z,68.86
2022-10-18T01:29:30.000Z,68.75
2022-10-18T01:32:12.170Z,68.64
2022-10-18T01:34:55.779Z,68.73
2022-10-18T01:37:31.984Z,68.75
2022-10-18T01:40:09.834Z,68.65
2022-10-18T01:42:46.361Z,68.92
2022-10-18T01:45:21.618Z,68.83
2022-10-18T01:47:56.629Z,68.84
2022-10-18T01:50:43.089Z,68.74
2022-10-18T01:53:35.670Z,68.80
2022-10-18T01:56:28.269Z,68.81
2022-10-18T01:59:17.895Z,69.08
2022-10-18T02:02:07.909Z,69.00
2022-10-18T02:05:00.487Z,69.01
2022-10-18T02:07:37.110Z,68.86
2022-10-18T02:10:19.753Z,68.85
2022-10-18T02:12:55.439Z,68.75
2022-10-18T02:15:33.352Z,68.81
2022-10-18T02:18:16.740Z,69.06
2022-10-18T02:20:57.016Z,68.92
2022-10-18T02:23:36.812Z,68.93
2022-10-18T02:26:10.245Z,69.01
2022-10-18T02:28:44.526Z,69.21
2022-10-18T02:31:17.871Z,69.26
2022-10-18T02:34:32.771Z,69.41
2022-10-18T02:37:06.691Z,69.69
2022-10-18T02:39:53.651Z,69.56
2022-10-18T02:42:26.324Z,69.53
2022-10-18T02:44:58.901Z,69.56
2022-10-18T02:47:31.553Z,69.46
2022-10-18T02:50:04.687Z,69.51
2022-10-18T02:52:37.638Z,69.53
2022-10-18T02:55:11.559Z,69.61
2022-10-18T02:57:44.971Z,69.60
2022-10-18T03:00:19.161Z,69.53
2022-10-18T03:02:56.752Z,69.53
2022-10-18T03:05:30.374Z,69.58
2022-10-18T03:08:04.019Z,69.66
2022-10-18T03:10:38.366Z,69.71
2022-10-18T03:13:13.382Z,69.66
2022-10-18T03:15:46.897Z,69.62
2022-10-18T03:18:20.356Z,69.59
2022-10-18T03:20:53.703Z,69.56
2022-10-18T03:23:36.206Z,69.63
2022-10-18T03:26:09.911Z,69.77
2022-10-18T03:28:43.132Z,69.78
2022-10-18T03:31:15.754Z,69.66
2022-10-18T03:33:48.129Z,69.57
2022-10-18T03:36:21.030Z,69.76
2022-10-18T03:38:53.963Z,69.69
2022-10-18T03:41:26.492Z,69.62
2022-10-18T03:43:58.977Z,69.39
2022-10-18T03:46:31.459Z,69.52
2022-10-18T03:49:03.809Z,69.57
2022-10-18T03:51:36.664Z,69.77
2022-10-18T03:54:09.250Z,69.63
2022-10-18T03:56:41.722Z,69.60
2022-10-18T03:59:14.208Z,69.71
2022-10-18T04:01:50.828Z,69.79
2022-10-18T04:04:23.645Z,69.78
2022-10-18T04:06:56.855Z,69.76
2022-10-18T04:09:30.402Z,69.76
2022-10-18T04:12:04.147Z,69.89
2022-10-18T04:14:37.840Z,69.95
2022-10-18T04:17:11.232Z,69.91
2022-10-18T04:19:44.446Z,69.96
2022-10-18T04:22:17.214Z,70.00
2022-10-18T04:24:50.307Z,69.87
2022-10-18T04:27:23.032Z,69.89
2022-10-18T04:29:55.222Z,69.94
2022-10-18T04:32:29.902Z,70.12
2022-10-18T04:35:02.812Z,70.01
2022-10-18T04:37:36.611Z,70.00
2022-10-18T04:40:10.488Z,70.02
2022-10-18T04:42:44.681Z,70.00
2022-10-18T04:45:17.938Z,69.96
2022-10-18T04:47:50.936Z,70.10
2022-10-18T04:50:23.902Z,70.07
2022-10-18T04:52:57.205Z,70.08
2022-10-18T04:55:30.071Z,70.27
2022-10-18T04:58:02.819Z,70.35
2022-10-18T05:00:39.951Z,70.44
2022-10-18T05:03:15.883Z,70.35
2022-10-18T05:06:03.761Z,70.47
2022-10-18T05:08:39.669Z,70.61
2022-10-18T05:11:12.535Z,70.57
2022-10-18T05:13:48.538Z,70.51
2022-10-18T05:16:25.580Z,70.50
2022-10-18T05:18:58.219Z,70.56
2022-10-18T05:21:30.913Z,70.65
2022-10-18T05:24:03.584Z,70.72
2022-10-18T05:26:36.750Z,70.71
2022-10-18T05:29:10.103Z,70.83
2022-10-18T05:31:43.063Z,70.85
2022-10-18T05:34:16.077Z,70.74
2022-10-18T05:36:51.243Z,70.68
2022-10-18T05:39:24.581Z,70.80
2022-10-18T05:41:58.631Z,70.99
2022-10-18T05:44:32.056Z,70.90
2022-10-18T05:47:05.261Z,70.92
2022-10-18T05:49:38.261Z,70.83
2022-10-18T05:52:11.003Z,70.84
2022-10-18T05:54:44.280Z,70.88
2022-10-18T05:57:16.969Z,70.91
2022-10-18T05:59:49.817Z,71.29
2022-10-18T06:02:22.532Z,71.37
2022-10-18T06:04:55.499Z,71.15
2022-10-18T06:07:28.472Z,71.16
2022-10-18T06:10:01.597Z,71.29
2022-10-18T06:12:34.665Z,72.08
2022-10-18T06:15:08.050Z,71.85
2022-10-18T06:17:41.053Z,72.37
2022-10-18T06:20:13.932Z,72.60
2022-10-18T06:22:46.714Z,72.50
2022-10-18T06:25:19.968Z,72.02
2022-10-18T06:27:52.959Z,71.75
2022-10-18T06:30:26.213Z,71.64
2022-10-18T06:33:02.837Z,72.16
2022-10-18T06:35:36.553Z,71.65
2022-10-18T06:38:09.887Z,71.49
2022-10-18T06:40:43.300Z,71.44
2022-10-18T06:43:20.971Z,71.77
2022-10-18T06:45:56.515Z,71.78
2022-10-18T06:48:29.372Z,71.14
2022-10-18T06:51:04.264Z,70.93
2022-10-18T06:53:43.907Z,71.80
2022-10-18T06:56:19.286Z,71.18
2022-10-18T06:58:52.277Z,72.39
2022-10-18T07:01:25.777Z,72.62
2022-10-18T07:03:59.335Z,75.21
2022-10-18T07:06:32.109Z,76.55
2022-10-18T07:09:05.359Z,79.86
2022-10-18T07:11:38.790Z,77.19
2022-10-18T07:14:15.433Z,77.40
2022-10-18T07:16:51.495Z,75.78
2022-10-18T07:19:24.793Z,78.20
2022-10-18T07:21:57.721Z,76.35
2022-10-18T07:24:30.831Z,77.02
2022-10-18T07:27:03.979Z,77.15
2022-10-18T07:29:41.424Z,77.38
2022-10-18T07:32:14.149Z,75.85
2022-10-18T07:34:46.775Z,74.31
2022-10-18T07:37:19.513Z,73.56
2022-10-18T07:39:52.108Z,74.12
2022-10-18T07:42:25.193Z,73.04
2022-10-18T07:44:58.002Z,72.13
2022-10-18T07:47:32.818Z,72.89
2022-10-18T07:50:08.716Z,73.74
2022-10-18T07:52:41.773Z,72.50
2022-10-18T07:55:14.631Z,73.45
2022-10-18T07:57:47.922Z,73.35
2022-10-18T08:00:20.776Z,72.24
2022-10-18T08:02:59.221Z,72.13
2022-10-18T08:08:08.017Z,71.74
2022-10-18T08:10:41.709Z,71.35
2022-10-18T08:13:14.738Z,71.23
2022-10-18T08:15:47.975Z,71.08
2022-10-18T08:18:21.253Z,70.48
2022-10-18T08:20:53.939Z,69.98
2022-10-18T08:23:27.286Z,69.76
2022-10-18T08:26:03.040Z,69.41
2022-10-18T08:28:37.055Z,68.67
2022-10-18T08:31:12.169Z,68.56
2022-10-18T08:33:44.961Z,68.14
2022-10-18T08:36:19.879Z,67.92
2022-10-18T08:38:52.700Z,67.36
2022-10-18T08:41:34.517Z,67.08
2022-10-18T08:44:22.568Z,66.64
2022-10-18T08:47:16.370Z,65.94
2022-10-18T08:50:01.324Z,65.28
2022-10-18T08:52:48.135Z,64.92
2022-10-18T08:55:23.366Z,64.20
2022-10-18T08:57:59.164Z,63.64
2022-10-18T09:00:37.916Z,63.33
2022-10-18T09:03:16.472Z,63.06
2022-10-18T09:06:17.652Z,62.42
2022-10-18T09:09:08.800Z,61.63
2022-10-18T09:11:47.513Z,61.90
2022-10-18T09:14:40.947Z,61.33
2022-10-18T09:17:32.047Z,60.87
2022-10-18T09:20:27.597Z,60.36
2022-10-18T09:23:05.556Z,60.06
2022-10-18T09:25:49.541Z,59.83
2022-10-18T09:28:31.979Z,59.75
2022-10-18T09:31:13.118Z,59.41
2022-10-18T09:34:10.598Z,59.32
2022-10-18T09:36:45.276Z,57.85
2022-10-18T09:39:46.251Z,58.33
2022-10-18T09:42:33.247Z,58.35
2022-10-18T09:45:27.518Z,58.31
2022-10-18T09:48:23.186Z,57.99
2022-10-18T09:51:12.685Z,57.37
2022-10-18T09:53:47.074Z,57.28
2022-10-18T09:56:41.074Z,56.80
2022-10-18T09:59:38.218Z,57.12
2022-10-18T10:02:21.689Z,57.33
2022-10-18T10:04:58.371Z,56.77
2022-10-18T10:07:36.854Z,55.42
2022-10-18T10:10:27.741Z,56.27
2022-10-18T10:13:16.694Z,56.06
2022-10-18T10:16:04.936Z,55.67
2022-10-18T10:18:41.409Z,55.06
2022-10-18T10:21:18.557Z,54.80
2022-10-18T10:24:01.577Z,54.81
2022-10-18T10:26:39.830Z,54.68
2022-10-18T10:29:52.005Z,54.60
2022-10-18T10:35:00.842Z,54.24
2022-10-18T10:37:41.610Z,53.96
2022-10-18T10:40:28.764Z,52.41
2022-10-18T10:43:18.324Z,53.06
2022-10-18T10:46:01.048Z,52.92
2022-10-18T10:49:21.725Z,53.43
2022-10-18T10:52:26.374Z,53.29
2022-10-18T10:55:17.033Z,52.96
2022-10-18T10:57:58.673Z,52.76
2022-10-18T11:00:45.685Z,52.23
2022-10-18T11:03:29.997Z,52.29
2022-10-18T11:06:03.957Z,52.15
2022-10-18T11:11:33.532Z,51.26
2022-10-18T11:14:26.908Z,51.18
2022-10-18T11:17:29.972Z,50.77
2022-10-18T11:20:11.787Z,50.46
2022-10-18T11:23:01.518Z,50.49
2022-10-18T11:25:44.378Z,50.37
2022-10-18T11:28:35.408Z,49.69
2022-10-18T11:31:31.166Z,50.19
2022-10-18T11:34:31.165Z,49.20
2022-10-18T11:37:44.814Z,49.79
2022-10-18T11:40:40.057Z,49.41
2022-10-18T11:43:38.992Z,49.53
2022-10-18T11:46:22.722Z,49.34
2022-10-18T11:49:02.456Z,49.14
2022-10-18T11:52:09.762Z,49.01
2022-10-18T11:55:02.196Z,48.95
2022-10-18T11:58:09.909Z,48.61
2022-10-18T12:00:55.309Z,48.67
2022-10-18T12:03:45.257Z,48.86
2022-10-18T12:06:22.495Z,48.48
2022-10-18T12:09:17.288Z,47.60
2022-10-18T12:11:59.220Z,47.41
2022-10-18T12:14:56.000Z,47.49
2022-10-18T12:17:50.309Z,47.24
2022-10-18T12:20:50.256Z,47.37
2022-10-18T12:23:31.764Z,47.34
2022-10-18T12:26:09.967Z,45.87
2022-10-18T12:29:05.556Z,46.92
2022-10-18T12:31:50.008Z,46.16
2022-10-18T12:34:24.896Z,46.04
2022-10-18T12:37:46.643Z,46.33
2022-10-18T12:40:32.733Z,46.43
2022-10-18T12:43:14.823Z,45.91
2022-10-18T12:46:02.863Z,46.06
2022-10-18T12:48:46.018Z,45.71
2022-10-18T12:51:21.584Z,45.56
2022-10-18T12:54:14.837Z,45.50
2022-10-18T12:56:51.318Z,44.89
2022-10-18T12:59:26.968Z,45.18
2022-10-18T13:01:59.646Z,45.14
2022-10-18T13:04:32.862Z,45.13
2022-10-18T13:07:11.616Z,44.79
2022-10-18T13:10:04.864Z,43.99
2022-10-18T13:13:05.645Z,44.41
2022-10-18T13:15:56.983Z,43.66
2022-10-18T13:18:47.450Z,43.56
2022-10-18T13:21:41.482Z,44.07
2022-10-18T13:24:26.957Z,43.95
2022-10-18T13:27:36.368Z,43.85
2022-10-18T13:30:32.669Z,43.96
2022-10-18T13:34:02.229Z,43.71
2022-10-18T13:36:36.698Z,43.78
2022-10-18T13:39:21.329Z,43.31
2022-10-18T13:41:57.579Z,42.91
2022-10-18T13:44:45.149Z,42.13
2022-10-18T13:47:35.718Z,42.46
2022-10-18T13:50:17.211Z,42.93
2022-10-18T13:53:13.831Z,42.85
2022-10-18T13:56:07.762Z,43.09
2022-10-18T13:59:15.804Z,43.06
2022-10-18T14:02:07.620Z,43.18
2022-10-18T14:05:23.195Z,42.96
2022-10-18T14:08:10.351Z,42.53
2022-10-18T14:11:02.222Z,42.47
2022-10-18T14:13:50.027Z,43.24
2022-10-18T14:16:31.143Z,43.20
2022-10-18T14:19:31.633Z,42.75
2022-10-18T14:22:29.904Z,42.65
2022-10-18T14:25:03.440Z,43.22
2022-10-18T14:27:37.311Z,43.19
2022-10-18T14:30:16.599Z,43.48
2022-10-18T14:32:59.799Z,43.58
2022-10-18T14:35:41.274Z,43.60
2022-10-18T14:38:17.154Z,43.69
2022-10-18T14:40:50.182Z,43.90
2022-10-18T14:43:23.237Z,43.88
2022-10-18T14:45:55.993Z,43.98
2022-10-18T14:48:28.949Z,44.05
2022-10-18T14:51:03.684Z,44.21
2022-10-18T14:53:40.434Z,44.38
2022-10-18T14:56:28.728Z,44.16
2022-10-18T14:59:04.281Z,43.83
2022-10-18T15:01:36.755Z,44.54
2022-10-18T15:04:13.893Z,44.56
2022-10-18T15:06:47.620Z,44.56
2022-10-18T15:09:24.882Z,44.62
2022-10-18T15:11:58.678Z,44.69
2022-10-18T15:14:32.210Z,44.77
2022-10-18T15:17:29.490Z,44.86
2022-10-18T15:20:25.971Z,44.99
2022-10-18T15:23:25.380Z,45.06
2022-10-18T15:26:14.626Z,45.16
2022-10-18T15:28:54.377Z,45.22
2022-10-18T15:31:37.849Z,45.29
2022-10-18T15:34:20.076Z,45.37
2022-10-18T15:36:52.004Z,45.39
2022-10-18T15:39:32.804Z,45.53
2022-10-18T15:42:05.916Z,45.20
2022-10-18T15:44:52.040Z,45.43
2022-10-18T15:47:25.654Z,45.64
2022-10-18T15:50:00.083Z,45.62
2022-10-18T15:52:38.457Z,45.78
2022-10-18T15:55:34.780Z,45.66
2022-10-18T15:58:20.760Z,45.90
2022-10-18T16:00:54.826Z,46.19
2022-10-18T16:03:27.700Z,46.28
2022-10-18T16:06:09.480Z,46.36
2022-10-18T16:08:46.934Z,46.49
2022-10-18T16:11:24.584Z,46.51
2022-10-18T16:13:59.616Z,46.65
2022-10-18T16:16:33.754Z,46.55
2022-10-18T16:19:07.024Z,46.71
2022-10-18T16:21:41.211Z,46.80
2022-10-18T16:24:13.909Z,46.94
2022-10-18T16:26:47.046Z,46.80
2022-10-18T16:29:26.234Z,47.05
2022-10-18T16:31:58.901Z,46.98
2022-10-18T16:34:32.526Z,47.00
2022-10-18T16:37:05.223Z,46.97
2022-10-18T16:39:38.261Z,47.20
2022-10-18T16:42:11.071Z,47.28
2022-10-18T16:44:43.645Z,47.21
2022-10-18T16:47:16.886Z,47.22
2022-10-18T16:49:50.474Z,46.99
2022-10-18T16:52:23.086Z,46.79
2022-10-18T16:54:55.323Z,47.08
2022-10-18T16:57:27.747Z,47.19
2022-10-18T17:00:00.638Z,46.78
2022-10-18T17:02:33.830Z,47.13
2022-10-18T17:05:06.601Z,47.02
2022-10-18T17:07:39.821Z,47.29
2022-10-18T17:10:19.979Z,47.39
2022-10-18T17:12:53.057Z,47.01
2022-10-18T17:15:26.026Z,46.68
2022-10-18T17:18:00.092Z,46.64
2022-10-18T17:20:32.599Z,46.69
2022-10-18T17:23:05.460Z,46.73
2022-10-18T17:25:46.507Z,47.19
2022-10-18T17:28:32.883Z,47.06
2022-10-18T17:31:07.448Z,47.20
2022-10-18T17:33:40.159Z,47.21
2022-10-18T17:36:12.943Z,47.26
2022-10-18T17:38:47.125Z,47.28
2022-10-18T17:41:21.387Z,47.29
2022-10-18T17:43:55.448Z,47.21
2022-10-18T17:46:28.342Z,47.43
2022-10-18T17:49:01.261Z,47.27
2022-10-18T17:51:34.985Z,47.39
2022-10-18T17:54:08.233Z,47.37
2022-10-18T17:56:42.492Z,47.42
2022-10-18T17:59:15.486Z,47.51
2022-10-18T18:01:48.462Z,47.54
2022-10-18T18:04:20.779Z,47.56
2022-10-18T18:06:53.763Z,47.42
2022-10-18T18:09:27.900Z,47.72
2022-10-18T18:12:01.042Z,47.69
2022-10-18T18:14:34.206Z,47.77
2022-10-18T18:17:07.741Z,47.70
2022-10-18T18:19:40.315Z,47.75
2022-10-18T18:22:12.973Z,47.93
2022-10-18T18:24:45.483Z,47.98
2022-10-18T18:27:18.026Z,47.98
2022-10-18T18:29:51.822Z,48.09
2022-10-18T18:32:24.448Z,48.21
2022-10-18T18:34:57.145Z,48.12
2022-10-18T18:37:29.891Z,48.31
2022-10-18T18:40:02.435Z,48.25
2022-10-18T18:42:35.590Z,48.41
2022-10-18T18:45:09.359Z,48.46
2022-10-18T18:47:42.145Z,48.47
2022-10-18T18:50:15.302Z,48.61
2022-10-18T18:52:47.746Z,48.67
2022-10-18T18:55:20.713Z,48.66
2022-10-18T18:57:53.415Z,48.75
2022-10-18T19:00:27.063Z,48.72
2022-10-18T19:02:59.837Z,48.83
2022-10-18T19:05:32.783Z,48.98
2022-10-18T19:08:06.563Z,49.03
2022-10-18T19:10:39.344Z,49.10
2022-10-18T19:13:12.589Z,49.14
2022-10-18T19:15:45.136Z,49.13
2022-10-18T19:18:23.105Z,49.17
2022-10-18T19:20:58.987Z,49.25
2022-10-18T19:23:31.758Z,49.39
2022-10-18T19:26:15.117Z,49.31
2022-10-18T19:28:48.076Z,49.38
2022-10-18T19:31:21.469Z,49.58
2022-10-18T19:33:59.689Z,49.57
2022-10-18T19:36:34.259Z,49.60
2022-10-18T19:39:08.440Z,49.53
2022-10-18T19:41:41.619Z,49.63
2022-10-18T19:44:14.460Z,49.56
2022-10-18T19:46:48.150Z,49.65
2022-10-18T19:49:21.087Z,49.66
2022-10-18T19:51:54.307Z,49.65
2022-10-18T19:54:27.993Z,49.75
2022-10-18T19:57:00.600Z,49.72
2022-10-18T19:59:33.678Z,49.79
2022-10-18T20:02:07.189Z,49.78
2022-10-18T20:04:40.309Z,49.80
2022-10-18T20:07:13.016Z,49.91
2022-10-18T20:09:47.657Z,50.09
2022-10-18T20:12:20.073Z,50.11
2022-10-18T20:14:51.353Z,50.07
2022-10-18T20:17:23.890Z,50.18
2022-10-18T20:19:56.458Z,50.39
2022-10-18T20:22:29.040Z,50.60
2022-10-18T20:25:01.786Z,50.54
2022-10-18T20:27:34.865Z,50.42
2022-10-18T20:30:10.526Z,50.65
2022-10-18T20:32:43.977Z,50.89
2022-10-18T20:35:16.490Z,50.98
2022-10-18T20:37:49.406Z,50.73
2022-10-18T20:40:21.794Z,50.92
2022-10-18T20:42:54.733Z,51.23
2022-10-18T20:45:28.042Z,51.18
2022-10-18T20:48:00.622Z,51.08
2022-10-18T20:50:33.568Z,51.00
2022-10-18T20:53:06.229Z,51.09
2022-10-18T20:55:39.400Z,50.99
2022-10-18T20:58:12.095Z,51.04
2022-10-18T21:00:44.487Z,51.46
2022-10-18T21:03:17.228Z,51.65
2022-10-18T21:05:49.896Z,51.68
2022-10-18T21:08:22.883Z,51.87
2022-10-18T21:10:56.060Z,51.83
2022-10-18T21:13:28.407Z,51.80
2022-10-18T21:16:02.400Z,51.80
2022-10-18T21:18:36.299Z,52.18
2022-10-18T21:21:16.263Z,52.50
2022-10-18T21:23:49.303Z,52.42
2022-10-18T21:26:23.756Z,52.49
2022-10-18T21:28:58.994Z,52.21
2022-10-18T21:31:39.422Z,51.96
2022-10-18T21:34:16.349Z,51.85
2022-10-18T21:36:50.299Z,52.08
2022-10-18T21:42:03.149Z,52.75
2022-10-18T21:44:35.745Z,52.96
2022-10-18T21:47:08.304Z,53.41
2022-10-18T21:49:40.962Z,53.27
2022-10-18T21:52:13.608Z,52.93
2022-10-18T21:54:46.219Z,52.78
2022-10-18T21:57:18.769Z,52.65
2022-10-18T21:59:51.315Z,52.68
2022-10-18T22:02:23.705Z,52.70
2022-10-18T22:04:56.343Z,52.85
2022-10-18T22:07:28.979Z,52.85
2022-10-18T22:10:01.911Z,52.95
2022-10-18T22:12:34.829Z,53.63
2022-10-18T22:15:08.025Z,53.49
2022-10-18T22:17:40.364Z,53.52
2022-10-18T22:20:13.655Z,53.16
2022-10-18T22:22:46.351Z,53.51
2022-10-18T22:25:19.122Z,54.08
2022-10-18T22:27:51.984Z,53.72
2022-10-18T22:30:24.389Z,53.65
2022-10-18T22:32:57.027Z,53.72
2022-10-18T22:35:29.694Z,53.51
2022-10-18T22:38:02.295Z,53.38
2022-10-18T22:40:35.322Z,53.62
2022-10-18T22:43:08.114Z,53.61
2022-10-18T22:45:42.037Z,53.65
2022-10-18T22:48:14.545Z,53.51
2022-10-18T22:50:47.345Z,53.58
2022-10-18T22:53:19.991Z,53.75
2022-10-18T22:55:53.315Z,54.36
2022-10-18T22:58:26.080Z,54.89
2022-10-18T23:01:09.344Z,54.40
2022-10-18T23:03:42.224Z,54.15
2022-10-18T23:06:34.881Z,54.13
2022-10-18T23:09:09.749Z,54.02
2022-10-18T23:11:42.346Z,53.97
2022-10-18T23:14:14.738Z,54.18
2022-10-18T23:16:47.164Z,54.04
2022-10-18T23:19:19.823Z,54.10
2022-10-18T23:21:52.108Z,54.19
2022-10-18T23:24:24.931Z,55.12
2022-10-18T23:26:57.396Z,55.11
2022-10-18T23:29:30.169Z,54.85
2022-10-18T23:32:02.702Z,54.92
2022-10-18T23:34:35.209Z,54.98
2022-10-18T23:37:07.888Z,55.02
2022-10-18T23:39:40.291Z,56.76
2022-10-18T23:42:13.068Z,57.15
2022-10-18T23:44:45.715Z,55.94
2022-10-18T23:47:18.824Z,56.01
2022-10-18T23:49:51.631Z,56.73
2022-10-18T23:52:25.158Z,56.03
2022-10-18T23:54:57.589Z,55.58
2022-10-18T23:57:30.317Z,55.42
